Oceanside, CA (92054)

5:46 AM PST on December 19, 2014 (GMT -0800)
South Oceanside/Fire Mountain | Change Station
CLOSE
Current Station
Personal Weather Station
Location: Oceanside, CA
Elevation: 121 ft
Nearby Weather Stations

Elev 121 ft 33.19 °N, 117.36 °W | Updated 6 seconds ago

Clear
Clear
49.5 °F
Feels Like 50 °F
N
2.0
Wind Variable Wind from NE
Gusts 6.0 mph

Today
High -- | Low -- °F
--% Chance of Precip.
Yesterday
High -- | Low -- °F
Precip. -- in
6:47 AM 4:45 PM
Waning Crescent, 8% visible
Pressure 30.19 in
Visibility 10.0 miles
Clouds Clear
Windchill 50 °F
Dew Point 43 °F
Humidity 79%
Rainfall 0.00 in
Snow Depth Not available.
UV 0 out of 12
Pollen 5.00 out of 12
Air Quality Not available.
Flu Activity Not available.
METAR KOKB 191252Z AUTO 05004KT 10SM CLR 08/06 A3020 RMK AO2 SLP224 T00780061

More Conditions Fewer Conditions

Pressure 30.19 in
Visibility 10.0 miles
Clouds Clear
Windchill 50 °F
Dew Point 43 °F
Humidity 79%
Rainfall 0.00 in
Snow Depth Not available.
UV 0 out of 12
Pollen 5.00 out of 12
Air Quality Not available.
Flu Activity Not available.
METAR KOKB 191252Z AUTO 05004KT 10SM CLR 08/06 A3020 RMK AO2 SLP224 T00780061

More Conditions Fewer Conditions

10-Day Weather Forecast

Almanac

Astronomy

Dec. 19, 2014 Rise Set
Actual Time
Civil Twilight
Nautical Twilight
Astronomical Twilight
Moon
Length of Visible Light
Length of Day
Tomorrow will be .
, % of the Moon is Illuminated

Today's Extremes

State Highs State Lows

Community

WunderPhotos

Upload Photos

1,778,987 photos uploaded!

WunderBlogs® & News

Nearby

Air Quality

  Air Quality AQ Index Pollutant
Not available.

Snow Depth

Station Depth Elevation

Earthquake Activity

City Distance Mag. Time & Date
Minimum magnitude displayed is 2.5.

Coastal Water Temperatures

Place Temperature

Nearby Weather Stations